createdAt,value
2022-12-13T00:01:20.415Z,-2.90
2022-12-13T00:03:47.952Z,-2.90
2022-12-13T00:06:17.764Z,-3.00
2022-12-13T00:08:44.614Z,-3.00
2022-12-13T00:11:13.487Z,-3.00
2022-12-13T00:13:42.206Z,-3.00
2022-12-13T00:16:12.905Z,-3.10
2022-12-13T00:18:40.378Z,-3.10
2022-12-13T00:21:09.524Z,-3.20
2022-12-13T00:23:36.758Z,-3.20
2022-12-13T00:26:13.600Z,-3.10
2022-12-13T00:28:42.928Z,-3.20
2022-12-13T00:31:53.398Z,-3.20
2022-12-13T00:34:02.835Z,-3.20
2022-12-13T00:36:31.748Z,-3.20
2022-12-13T00:39:02.497Z,-3.20
2022-12-13T00:41:37.412Z,-3.20
2022-12-13T00:44:05.660Z,-3.20
2022-12-13T00:46:33.056Z,-3.20
2022-12-13T00:49:02.057Z,-3.20
2022-12-13T00:51:31.003Z,-3.30
2022-12-13T00:53:59.309Z,-3.30
2022-12-13T00:56:29.849Z,-3.20
2022-12-13T00:58:57.901Z,-3.30
2022-12-13T01:01:31.485Z,-3.20
2022-12-13T01:04:01.731Z,-3.20
2022-12-13T01:06:36.461Z,-3.20
2022-12-13T01:09:04.583Z,-3.30
2022-12-13T01:11:31.586Z,-3.20
2022-12-13T01:13:58.594Z,-3.30
2022-12-13T01:16:25.670Z,-3.30
2022-12-13T01:22:39.857Z,-3.40
2022-12-13T01:25:07.175Z,-3.30
2022-12-13T01:27:33.945Z,-3.30
2022-12-13T01:30:00.999Z,-3.30
2022-12-13T01:32:27.897Z,-3.30
2022-12-13T01:34:54.704Z,-3.30
2022-12-13T01:37:21.572Z,-3.30
2022-12-13T01:39:53.078Z,-3.30
2022-12-13T01:42:25.331Z,-3.30
2022-12-13T01:44:52.299Z,-3.40
2022-12-13T01:47:30.088Z,-3.40
2022-12-13T01:50:02.220Z,-3.40
2022-12-13T01:52:32.552Z,-3.40
2022-12-13T01:55:03.702Z,-3.40
2022-12-13T01:57:33.030Z,-3.40
2022-12-13T02:00:00.460Z,-3.40
2022-12-13T02:02:27.509Z,-3.40
2022-12-13T02:05:25.126Z,-3.40
2022-12-13T02:07:53.693Z,-3.40
2022-12-13T02:10:20.924Z,-3.40
2022-12-13T02:12:48.258Z,-3.40
2022-12-13T02:15:18.304Z,-3.40
2022-12-13T02:18:23.077Z,-3.40
2022-12-13T02:21:14.830Z,-3.40
2022-12-13T02:24:09.333Z,-3.50
2022-12-13T02:26:54.883Z,-3.50
2022-12-13T02:29:56.939Z,-3.50
2022-12-13T02:32:34.185Z,-3.50
2022-12-13T02:35:12.905Z,-3.50
2022-12-13T02:38:07.088Z,-3.50
2022-12-13T02:40:40.000Z,-3.50
2022-12-13T02:43:34.766Z,-3.50
2022-12-13T02:46:04.813Z,-3.60
2022-12-13T02:48:36.698Z,-3.60
2022-12-13T02:51:06.979Z,-3.60
2022-12-13T02:53:35.031Z,-3.70
2022-12-13T02:56:02.141Z,-3.70
2022-12-13T02:58:34.619Z,-3.70
2022-12-13T03:01:28.904Z,-3.70
2022-12-13T03:04:34.935Z,-3.80
2022-12-13T03:07:23.811Z,-3.70
2022-12-13T03:10:00.364Z,-3.70
2022-12-13T03:16:34.636Z,-3.80
2022-12-13T03:19:04.499Z,-3.90
2022-12-13T03:21:45.562Z,-3.90
2022-12-13T03:24:16.721Z,-3.90
2022-12-13T03:26:43.658Z,-3.90
2022-12-13T03:29:10.642Z,-3.90
2022-12-13T03:31:37.506Z,-3.90
2022-12-13T03:34:04.369Z,-3.90
2022-12-13T03:36:31.307Z,-3.90
2022-12-13T03:38:58.812Z,-3.90
2022-12-13T03:41:31.929Z,-4.00
2022-12-13T03:44:08.546Z,-4.00
2022-12-13T03:46:35.706Z,-4.00
2022-12-13T03:49:02.696Z,-4.00
2022-12-13T03:51:29.847Z,-4.00
2022-12-13T03:53:56.790Z,-4.00
2022-12-13T03:56:23.951Z,-4.10
2022-12-13T03:58:50.916Z,-4.10
2022-12-13T04:01:18.400Z,-4.10
2022-12-13T04:03:46.988Z,-4.10
2022-12-13T04:06:21.838Z,-4.10
2022-12-13T04:08:50.870Z,-4.10
2022-12-13T04:11:42.641Z,-4.10
2022-12-13T04:14:10.891Z,-4.10
2022-12-13T04:16:38.271Z,-4.10
2022-12-13T04:19:05.197Z,-4.10
2022-12-13T04:21:32.078Z,-4.10
2022-12-13T04:24:00.883Z,-4.10
2022-12-13T04:26:29.008Z,-4.20
2022-12-13T04:28:56.682Z,-4.20
2022-12-13T04:31:23.839Z,-4.20
2022-12-13T04:33:51.332Z,-4.20
2022-12-13T04:36:31.462Z,-4.20
2022-12-13T04:39:01.523Z,-4.20
2022-12-13T04:41:34.087Z,-4.20
2022-12-13T04:44:02.335Z,-4.20
2022-12-13T04:46:29.865Z,-4.20
2022-12-13T04:48:56.997Z,-4.20
2022-12-13T04:51:24.132Z,-4.20
2022-12-13T04:53:51.903Z,-4.20
2022-12-13T04:56:20.120Z,-4.30
2022-12-13T04:58:47.322Z,-4.30
2022-12-13T05:01:14.599Z,-4.30
2022-12-13T05:03:41.633Z,-4.30
2022-12-13T05:06:27.121Z,-4.20
2022-12-13T05:09:00.957Z,-4.30
2022-12-13T05:11:35.796Z,-4.30
2022-12-13T05:14:03.591Z,-4.40
2022-12-13T05:16:30.621Z,-4.40
2022-12-13T05:18:57.606Z,-4.40
2022-12-13T05:21:24.552Z,-4.40
2022-12-13T05:23:51.898Z,-4.40
2022-12-13T05:26:19.056Z,-4.40
2022-12-13T05:28:46.234Z,-4.40
2022-12-13T05:31:23.504Z,-4.40
2022-12-13T05:33:52.270Z,-4.40
2022-12-13T05:36:19.340Z,-4.40
2022-12-13T05:38:46.374Z,-4.40
2022-12-13T05:41:21.314Z,-4.40
2022-12-13T05:43:48.398Z,-4.40
2022-12-13T05:46:15.469Z,-4.40
2022-12-13T05:48:43.065Z,-4.50
2022-12-13T05:51:11.992Z,-4.40
2022-12-13T05:53:42.525Z,-4.40
2022-12-13T05:56:11.178Z,-4.40
2022-12-13T05:58:39.447Z,-4.40
2022-12-13T06:01:13.003Z,-4.50
2022-12-13T06:03:40.980Z,-4.50
2022-12-13T06:06:10.758Z,-4.50
2022-12-13T06:08:38.583Z,-4.50
2022-12-13T06:11:11.758Z,-4.50
2022-12-13T06:13:42.421Z,-4.50
2022-12-13T06:16:22.738Z,-4.50
2022-12-13T06:19:04.297Z,-4.50
2022-12-13T06:21:43.477Z,-4.50
2022-12-13T06:24:15.639Z,-4.50
2022-12-13T06:26:45.187Z,-4.60
2022-12-13T06:29:23.605Z,-4.60
2022-12-13T06:33:03.927Z,-4.60
2022-12-13T06:35:34.141Z,-4.60
2022-12-13T06:38:03.811Z,-4.50
2022-12-13T06:40:40.677Z,-4.50
2022-12-13T06:43:07.568Z,-4.60
2022-12-13T06:45:34.474Z,-4.50
2022-12-13T06:48:01.524Z,-4.50
2022-12-13T06:50:28.343Z,-4.50
2022-12-13T06:52:55.400Z,-4.60
2022-12-13T06:55:23.637Z,-4.60
2022-12-13T06:57:51.662Z,-4.60
2022-12-13T07:00:21.975Z,-4.60
2022-12-13T07:02:56.852Z,-4.60
2022-12-13T07:05:25.115Z,-4.60
2022-12-13T07:07:52.104Z,-4.60
2022-12-13T07:10:22.602Z,-4.50
2022-12-13T07:12:50.250Z,-4.50
2022-12-13T07:15:17.236Z,-4.50
2022-12-13T07:17:44.387Z,-4.40
2022-12-13T07:20:13.688Z,-4.40
2022-12-13T07:22:47.353Z,-4.40
2022-12-13T07:25:27.409Z,-4.40
2022-12-13T07:28:03.944Z,-4.40
2022-12-13T07:30:40.525Z,-4.40
2022-12-13T07:33:09.956Z,-4.40
2022-12-13T07:35:41.440Z,-4.30
2022-12-13T07:38:10.342Z,-4.30
2022-12-13T07:40:38.702Z,-4.30
2022-12-13T07:43:12.549Z,-4.30
2022-12-13T07:45:39.747Z,-4.20
2022-12-13T07:48:08.687Z,-4.30
2022-12-13T07:50:39.033Z,-4.30
2022-12-13T07:53:07.283Z,-4.30
2022-12-13T07:55:34.610Z,-4.30
2022-12-13T07:58:12.450Z,-4.20
2022-12-13T08:00:46.078Z,-4.20
2022-12-13T08:03:25.558Z,-4.20
2022-12-13T08:06:11.315Z,-4.20
2022-12-13T08:08:39.304Z,-4.10
2022-12-13T08:11:12.156Z,-4.10
2022-12-13T08:13:40.974Z,-4.00
2022-12-13T08:16:27.912Z,-4.00
2022-12-13T08:19:02.279Z,-4.00
2022-12-13T08:24:35.539Z,-3.90
2022-12-13T08:27:03.357Z,-3.90
2022-12-13T08:29:33.158Z,-3.90
2022-12-13T08:32:09.447Z,-3.80
2022-12-13T08:34:36.820Z,-3.80
2022-12-13T08:37:08.314Z,-3.80
2022-12-13T08:39:38.006Z,-3.70
2022-12-13T08:42:16.857Z,-3.70
2022-12-13T08:44:54.132Z,-3.70
2022-12-13T08:47:26.445Z,-3.70
2022-12-13T08:50:02.655Z,-3.70
2022-12-13T08:52:32.305Z,-3.60
2022-12-13T08:55:09.141Z,-3.50
2022-12-13T08:57:37.176Z,-3.50
2022-12-13T09:00:09.771Z,-3.40
2022-12-13T09:02:38.311Z,-3.40
2022-12-13T09:05:07.723Z,-3.30
2022-12-13T09:07:41.389Z,-3.30
2022-12-13T09:10:26.866Z,-3.20
2022-12-13T09:13:01.353Z,-3.10
2022-12-13T09:15:34.367Z,-2.90
2022-12-13T09:18:04.207Z,-2.70
2022-12-13T09:20:32.848Z,-2.60
2022-12-13T09:23:14.148Z,-2.50
2022-12-13T09:25:56.365Z,-2.40
2022-12-13T09:28:33.732Z,-2.40
2022-12-13T09:31:00.713Z,-2.20
2022-12-13T09:33:30.552Z,-2.10
2022-12-13T09:36:01.147Z,-2.10
2022-12-13T09:38:29.303Z,-2.10
2022-12-13T09:40:58.577Z,-2.00
2022-12-13T09:43:42.984Z,-2.00
2022-12-13T09:46:34.512Z,-2.00
2022-12-13T09:49:28.530Z,-2.00
2022-12-13T09:52:10.521Z,-2.00
2022-12-13T09:54:47.863Z,-2.00
2022-12-13T10:07:50.105Z,-1.80
2022-12-13T10:10:17.831Z,-1.70
2022-12-13T10:12:52.483Z,-1.60
2022-12-13T10:15:22.337Z,-1.60
2022-12-13T10:17:55.169Z,-1.50
2022-12-13T10:20:26.189Z,-1.40
2022-12-13T10:26:42.107Z,-1.00
2022-12-13T10:29:10.273Z,-0.90
2022-12-13T10:39:42.921Z,-0.70
2022-12-13T10:42:23.524Z,-0.40
2022-12-13T10:48:51.829Z,0.10
2022-12-13T10:51:21.599Z,0.60
2022-12-13T10:53:50.528Z,0.90
2022-12-13T10:56:22.864Z,0.90
2022-12-13T10:59:13.305Z,1.40
2022-12-13T11:01:43.747Z,1.70
2022-12-13T11:04:33.475Z,1.80
2022-12-13T11:07:20.039Z,2.00
2022-12-13T11:09:52.284Z,2.30
2022-12-13T11:12:25.834Z,2.60
2022-12-13T11:15:05.258Z,2.70
2022-12-13T11:17:38.502Z,2.70
2022-12-13T11:20:08.207Z,2.80
2022-12-13T11:22:37.947Z,2.70
2022-12-13T11:25:25.418Z,2.70
2022-12-13T11:28:26.863Z,2.80
2022-12-13T11:31:27.576Z,2.70
2022-12-13T11:34:21.037Z,2.90
2022-12-13T11:37:00.638Z,2.90
2022-12-13T11:39:33.148Z,3.00
2022-12-13T11:42:07.790Z,3.00
2022-12-13T11:45:04.304Z,3.00
2022-12-13T11:47:58.353Z,3.10
2022-12-13T11:50:45.845Z,3.30
2022-12-13T11:53:19.310Z,3.50
2022-12-13T11:55:58.922Z,3.70
2022-12-13T11:59:13.309Z,3.70
2022-12-13T12:01:51.695Z,3.80
2022-12-13T12:04:45.893Z,3.70
2022-12-13T12:10:14.003Z,4.00
2022-12-13T12:12:45.889Z,4.20
2022-12-13T12:15:27.052Z,4.20
2022-12-13T12:17:55.976Z,4.50
2022-12-13T12:20:40.147Z,4.40
2022-12-13T12:23:32.911Z,4.40
2022-12-13T12:26:16.755Z,4.60
2022-12-13T12:29:11.949Z,4.70
2022-12-13T12:32:17.755Z,4.80
2022-12-13T12:35:12.322Z,4.60
2022-12-13T12:38:00.504Z,4.60
2022-12-13T12:43:42.209Z,4.40
2022-12-13T12:46:18.297Z,4.80
2022-12-13T12:49:19.219Z,4.50
2022-12-13T12:52:04.567Z,4.60
2022-12-13T12:55:03.762Z,4.40
2022-12-13T12:57:39.304Z,4.00
2022-12-13T13:00:21.970Z,4.00
2022-12-13T13:03:22.882Z,3.80
2022-12-13T13:06:03.233Z,3.50
2022-12-13T13:08:51.625Z,3.40
2022-12-13T13:11:25.953Z,3.30
2022-12-13T13:14:02.638Z,3.30
2022-12-13T13:16:29.623Z,3.30
2022-12-13T13:18:58.292Z,3.30
2022-12-13T13:21:32.230Z,3.30
2022-12-13T13:24:02.013Z,3.10
2022-12-13T13:26:35.876Z,3.00
2022-12-13T13:29:31.828Z,3.00
2022-12-13T13:32:28.507Z,3.10
2022-12-13T13:35:29.065Z,3.10
2022-12-13T13:37:59.605Z,3.50
2022-12-13T13:40:30.478Z,3.50
2022-12-13T13:43:10.160Z,3.60
2022-12-13T13:45:53.275Z,3.30
2022-12-13T13:48:23.658Z,3.20
2022-12-13T13:51:05.600Z,3.40
2022-12-13T13:53:59.737Z,3.60
2022-12-13T13:56:42.323Z,3.50
2022-12-13T13:59:54.999Z,3.60
2022-12-13T14:02:34.014Z,4.10
2022-12-13T14:05:43.716Z,4.40
2022-12-13T14:08:29.213Z,4.50
2022-12-13T14:11:12.548Z,4.20
2022-12-13T14:14:21.588Z,3.80
2022-12-13T14:16:49.430Z,3.10
2022-12-13T14:19:56.294Z,3.00
2022-12-13T14:22:38.196Z,2.70
2022-12-13T14:25:54.480Z,2.30
2022-12-13T14:28:23.363Z,1.90
2022-12-13T14:30:57.128Z,1.70
2022-12-13T14:33:27.155Z,1.60
2022-12-13T14:35:58.883Z,1.40
2022-12-13T14:38:31.237Z,1.40
2022-12-13T14:41:01.462Z,1.30
2022-12-13T14:43:29.969Z,1.20
2022-12-13T14:45:58.841Z,1.10
2022-12-13T14:48:28.451Z,1.00
2022-12-13T14:50:56.140Z,0.90
2022-12-13T14:53:39.383Z,0.70
2022-12-13T14:56:08.636Z,0.70
2022-12-13T14:58:37.071Z,0.40
2022-12-13T15:01:25.073Z,0.20
2022-12-13T15:04:37.068Z,0.20
2022-12-13T15:07:25.891Z,0.10
2022-12-13T15:10:20.353Z,0.00
2022-12-13T15:12:48.383Z,0.00
2022-12-13T15:15:26.947Z,-0.10
2022-12-13T15:18:14.770Z,-0.10
2022-12-13T15:20:42.177Z,-0.20
2022-12-13T15:23:19.942Z,-0.20
2022-12-13T15:25:50.623Z,-0.30
2022-12-13T15:28:21.613Z,-0.30
2022-12-13T15:30:50.076Z,-0.40
2022-12-13T15:33:20.402Z,-0.50
2022-12-13T15:35:50.099Z,-0.50
2022-12-13T15:38:28.772Z,-0.60
2022-12-13T15:40:57.030Z,-0.60
2022-12-13T15:43:43.993Z,-0.70
2022-12-13T15:46:11.308Z,-0.70
2022-12-13T15:48:42.009Z,-0.80
2022-12-13T15:51:29.405Z,-0.80
2022-12-13T15:54:11.968Z,-0.90
2022-12-13T15:56:44.080Z,-1.00
2022-12-13T15:59:30.098Z,-1.00
2022-12-13T16:01:58.741Z,-1.00
2022-12-13T16:04:32.766Z,-1.00
2022-12-13T16:07:00.994Z,-1.00
2022-12-13T16:09:34.981Z,-1.00
2022-12-13T16:12:07.061Z,-1.00
2022-12-13T16:14:48.758Z,-1.00
2022-12-13T16:17:29.529Z,-1.00
2022-12-13T16:20:02.146Z,-1.00
2022-12-13T16:22:33.435Z,-1.10
2022-12-13T16:25:00.538Z,-1.10
2022-12-13T16:27:27.560Z,-1.10
2022-12-13T16:29:55.925Z,-1.10
2022-12-13T16:32:23.158Z,-1.20
2022-12-13T16:34:50.240Z,-1.20
2022-12-13T16:37:25.534Z,-1.20
2022-12-13T16:39:54.651Z,-1.20
2022-12-13T16:42:26.499Z,-1.30
2022-12-13T16:45:32.443Z,-1.30
2022-12-13T16:47:48.731Z,-1.30
2022-12-13T16:50:20.414Z,-1.30
2022-12-13T16:52:48.810Z,-1.40
2022-12-13T16:55:18.115Z,-1.40
2022-12-13T16:57:54.473Z,-1.50
2022-12-13T17:00:21.917Z,-1.50
2022-12-13T17:02:49.046Z,-1.60
2022-12-13T17:05:16.308Z,-1.60
2022-12-13T17:07:43.335Z,-1.60
2022-12-13T17:10:11.586Z,-1.60
2022-12-13T17:12:39.036Z,-1.60
2022-12-13T17:15:06.886Z,-1.60
2022-12-13T17:17:34.043Z,-1.60
2022-12-13T17:20:01.377Z,-1.70
2022-12-13T17:22:28.476Z,-1.70
2022-12-13T17:24:55.699Z,-1.70
2022-12-13T17:27:22.819Z,-1.60
2022-12-13T17:29:49.569Z,-1.60
2022-12-13T17:32:16.768Z,-1.60
2022-12-13T17:34:43.886Z,-1.60
2022-12-13T17:37:11.076Z,-1.60
2022-12-13T17:55:00.937Z,-1.90
2022-12-13T17:57:27.882Z,-1.90
2022-12-13T17:59:55.062Z,-1.90
2022-12-13T18:02:23.091Z,-1.90
2022-12-13T18:04:50.726Z,-1.90
2022-12-13T18:07:18.169Z,-1.90
2022-12-13T18:09:45.366Z,-1.90
2022-12-13T18:12:13.060Z,-1.90
2022-12-13T18:14:40.115Z,-1.90
2022-12-13T18:17:07.300Z,-1.90
2022-12-13T18:19:34.645Z,-1.90
2022-12-13T18:22:01.700Z,-1.90
2022-12-13T18:24:28.836Z,-1.80
2022-12-13T18:26:55.890Z,-1.80
2022-12-13T18:29:22.799Z,-1.80
2022-12-13T18:31:49.701Z,-1.80
2022-12-13T18:34:16.758Z,-1.80
2022-12-13T18:36:43.702Z,-1.80
2022-12-13T18:39:10.730Z,-1.80
2022-12-13T18:41:37.784Z,-1.80
2022-12-13T18:44:07.890Z,-1.80
2022-12-13T18:46:36.448Z,-1.80
2022-12-13T18:49:04.429Z,-1.80
2022-12-13T18:51:32.369Z,-1.90
2022-12-13T18:53:59.585Z,-1.90
2022-12-13T18:56:26.428Z,-1.90
2022-12-13T18:58:53.561Z,-1.90
2022-12-13T19:01:21.154Z,-2.00
2022-12-13T19:03:48.830Z,-1.90
2022-12-13T19:06:18.796Z,-1.90
2022-12-13T19:08:54.078Z,-1.90
2022-12-13T19:11:21.866Z,-1.90
2022-12-13T19:13:49.363Z,-1.90
2022-12-13T19:16:19.543Z,-1.90
2022-12-13T19:18:46.842Z,-1.90
2022-12-13T19:21:16.511Z,-1.90
2022-12-13T19:23:43.616Z,-1.90
2022-12-13T19:26:13.731Z,-1.80
2022-12-13T19:28:42.515Z,-1.80
2022-12-13T19:31:14.751Z,-1.80
2022-12-13T19:33:43.075Z,-1.80
2022-12-13T19:36:10.758Z,-1.90
2022-12-13T19:38:39.064Z,-1.80
2022-12-13T19:41:17.494Z,-1.80
2022-12-13T19:43:52.115Z,-1.90
2022-12-13T19:46:20.485Z,-1.80
2022-12-13T19:48:48.176Z,-1.90
2022-12-13T19:51:15.508Z,-1.90
2022-12-13T19:53:42.597Z,-1.90
2022-12-13T19:56:14.072Z,-1.90
2022-12-13T19:58:41.100Z,-1.90
2022-12-13T20:01:08.946Z,-1.90
2022-12-13T20:03:38.777Z,-2.00
2022-12-13T20:06:07.410Z,-1.90
2022-12-13T20:08:35.126Z,-1.90
2022-12-13T20:11:08.118Z,-1.90
2022-12-13T20:13:36.110Z,-1.90
2022-12-13T20:16:04.931Z,-1.90
2022-12-13T20:18:34.491Z,-1.90
2022-12-13T20:21:12.458Z,-1.90
2022-12-13T20:23:41.686Z,-1.80
2022-12-13T20:26:16.926Z,-1.80
2022-12-13T20:28:43.962Z,-1.80
2022-12-13T20:31:19.552Z,-1.80
2022-12-13T20:33:47.268Z,-1.70
2022-12-13T20:36:26.075Z,-1.80
2022-12-13T20:38:56.230Z,-1.80
2022-12-13T20:41:25.516Z,-1.80
2022-12-13T20:43:53.780Z,-1.80
2022-12-13T20:46:21.714Z,-1.80
2022-12-13T20:48:50.167Z,-1.80
2022-12-13T20:51:22.226Z,-1.70
2022-12-13T20:53:51.453Z,-1.70
2022-12-13T20:56:21.693Z,-1.70
2022-12-13T20:58:48.859Z,-1.70
2022-12-13T21:01:22.105Z,-1.60
2022-12-13T21:03:49.735Z,-1.60
2022-12-13T21:06:16.696Z,-1.60
2022-12-13T21:08:52.667Z,-1.60
2022-12-13T21:11:30.094Z,-1.60
2022-12-13T21:14:08.883Z,-1.60
2022-12-13T21:16:40.208Z,-1.60
2022-12-13T21:19:09.751Z,-1.60
2022-12-13T21:21:36.991Z,-1.60
2022-12-13T21:24:04.463Z,-1.60
2022-12-13T21:26:35.319Z,-1.70
2022-12-13T21:29:05.276Z,-1.70
2022-12-13T21:31:32.442Z,-1.70
2022-12-13T21:34:01.094Z,-1.70
2022-12-13T21:36:30.590Z,-1.70
2022-12-13T21:39:00.406Z,-1.60
2022-12-13T21:41:28.206Z,-1.60
2022-12-13T21:43:55.604Z,-1.60
2022-12-13T21:46:35.779Z,-1.60
2022-12-13T21:49:11.848Z,-1.60
2022-12-13T21:51:41.130Z,-1.60
2022-12-13T21:54:10.167Z,-1.60
2022-12-13T21:56:55.439Z,-1.60
2022-12-13T21:59:25.207Z,-1.60
2022-12-13T22:02:13.547Z,-1.70
2022-12-13T22:05:10.279Z,-1.70
2022-12-13T22:07:38.056Z,-1.70
2022-12-13T22:10:05.477Z,-1.70
2022-12-13T22:12:41.004Z,-1.80
2022-12-13T22:15:13.548Z,-1.80
2022-12-13T22:17:41.394Z,-1.80
2022-12-13T22:20:11.177Z,-1.70
2022-12-13T22:22:39.065Z,-1.70
2022-12-13T22:25:07.118Z,-1.70
2022-12-13T22:27:34.234Z,-1.70
2022-12-13T22:30:01.067Z,-1.70
2022-12-13T22:32:32.256Z,-1.70
2022-12-13T22:34:59.440Z,-1.70
2022-12-13T22:37:26.437Z,-1.70
2022-12-13T22:39:53.416Z,-1.70
2022-12-13T22:42:21.173Z,-1.70
2022-12-13T22:44:48.342Z,-1.70
2022-12-13T22:47:15.509Z,-1.70
2022-12-13T22:49:42.338Z,-1.70
2022-12-13T22:52:09.255Z,-1.70
2022-12-13T22:54:36.141Z,-1.70
2022-12-13T22:57:03.329Z,-1.70
2022-12-13T22:59:30.301Z,-1.70
2022-12-13T23:02:02.165Z,-1.70
2022-12-13T23:04:30.642Z,-1.70
2022-12-13T23:06:57.430Z,-1.70
2022-12-13T23:09:24.248Z,-1.70
2022-12-13T23:12:09.823Z,-1.60
2022-12-13T23:14:36.694Z,-1.60
2022-12-13T23:17:04.315Z,-1.60
2022-12-13T23:19:41.501Z,-1.60
2022-12-13T23:22:19.230Z,-1.60
2022-12-13T23:24:46.058Z,-1.60
2022-12-13T23:27:12.841Z,-1.50
2022-12-13T23:29:39.969Z,-1.50
2022-12-13T23:32:07.133Z,-1.50
2022-12-13T23:34:34.084Z,-1.50
2022-12-13T23:37:00.825Z,-1.50
2022-12-13T23:39:27.984Z,-1.50
2022-12-13T23:41:54.811Z,-1.50
2022-12-13T23:44:21.696Z,-1.40
2022-12-13T23:46:49.144Z,-1.40
2022-12-13T23:49:18.007Z,-1.50
2022-12-13T23:51:44.845Z,-1.50
2022-12-13T23:54:16.437Z,-1.50
2022-12-13T23:56:43.661Z,-1.50
2022-12-13T23:59:10.785Z,-1.50
